Time;durP1;ratioP1;P1;durP2;ratioP2;P2;SDS_P1;SDS_P2;PMS_P1;PMS_P2;Temp;Humidity;BMP_temperature;BMP_pressure;BME280_temperature;BME280_humidity;BME280_pressure;Samples;Min_cycle;Max_cycle;Signal;HPM_P1;HPM_P2
2023/07/31 00:01:19;;;;;;;9.97;8.87;;;;;;;24.57;58.23;100553.94;5053489;28;20860;-76
2023/07/31 00:03:45;;;;;;;9.97;8.97;;;;;;;24.46;58.54;100550.34;5053411;28;20526;-75
2023/07/31 00:06:11;;;;;;;9.32;8.50;;;;;;;24.42;58.39;100554.69;5053104;28;20837;-75
2023/07/31 00:08:36;;;;;;;9.70;8.80;;;;;;;24.34;58.76;100552.47;5052073;28;20380;-75
2023/07/31 00:11:02;;;;;;;9.73;8.20;;;;;;;24.36;58.52;100547.59;5051839;28;20393;-75
2023/07/31 00:13:27;;;;;;;9.57;8.70;;;;;;;24.36;58.83;100544.88;5052583;28;20386;-75
2023/07/31 00:15:52;;;;;;;9.55;8.48;;;;;;;24.34;58.54;100544.34;5052883;28;20406;-75
2023/07/31 00:18:18;;;;;;;11.00;8.97;;;;;;;24.32;58.68;100555.44;5052811;28;20384;-75
2023/07/31 00:20:43;;;;;;;11.27;9.17;;;;;;;24.24;58.86;100550.56;5051746;28;20401;-75
2023/07/31 00:23:09;;;;;;;10.00;8.97;;;;;;;24.27;58.87;100558.13;5052681;28;20499;-75
2023/07/31 00:25:34;;;;;;;9.65;8.75;;;;;;;24.33;58.67;100550.84;5052685;28;20384;-75
2023/07/31 00:28:00;;;;;;;10.83;8.60;;;;;;;24.16;59.01;100551.06;5051330;28;20737;-75
2023/07/31 00:30:26;;;;;;;9.30;8.43;;;;;;;24.08;59.34;100548.88;5050393;28;20431;-75
2023/07/31 00:32:52;;;;;;;9.90;8.60;;;;;;;24.03;59.25;100550.44;5052491;28;20474;-75
2023/07/31 00:35:18;;;;;;;9.50;8.60;;;;;;;24.03;59.30;100547.75;5052302;28;20464;-75
2023/07/31 00:37:43;;;;;;;10.77;8.87;;;;;;;23.99;59.21;100538.53;5050894;28;20427;-75
2023/07/31 00:40:09;;;;;;;9.52;8.55;;;;;;;24.10;59.14;100552.13;5052086;28;20412;-75
2023/07/31 00:42:34;;;;;;;10.43;9.40;;;;;;;24.09;59.10;100556.69;5053422;28;20466;-75
2023/07/31 00:44:59;;;;;;;10.70;8.97;;;;;;;23.96;59.33;100543.66;5055014;28;20377;-75
2023/07/31 00:47:25;;;;;;;10.13;8.80;;;;;;;24.00;59.23;100544.75;5055404;28;20841;-75
2023/07/31 00:49:51;;;;;;;9.63;8.73;;;;;;;24.02;58.95;100545.28;5053552;28;20906;-75
2023/07/31 00:52:18;;;;;;;10.40;8.90;;;;;;;23.91;58.82;100530.91;5052014;28;20376;-75
2023/07/31 00:54:44;;;;;;;9.57;8.68;;;;;;;23.97;58.95;100542.59;5051977;28;20861;-76
2023/07/31 00:57:10;;;;;;;9.93;9.03;;;;;;;23.99;58.56;100543.94;5051641;28;20380;-74
2023/07/31 00:59:35;;;;;;;9.55;8.65;;;;;;;24.07;58.19;100542.63;5052123;28;20396;-75
2023/07/31 01:02:03;;;;;;;9.60;8.70;;;;;;;24.11;57.98;100535.59;5051854;28;20806;-75
2023/07/31 01:04:29;;;;;;;10.55;8.68;;;;;;;24.00;58.15;100537.47;5051946;28;20381;-75
2023/07/31 01:06:57;;;;;;;9.63;8.73;;;;;;;23.95;58.27;100526.59;5051648;28;20447;-76
2023/07/31 01:09:35;;;;;;;9.85;8.90;;;;;;;23.91;58.61;100527.38;5051597;28;20427;-76
2023/07/31 01:12:03;;;;;;;10.23;9.23;;;;;;;24.01;58.30;100522.81;5051613;28;20380;-75
2023/07/31 01:14:28;;;;;;;12.23;9.60;;;;;;;23.95;58.59;100521.19;5051518;28;20454;-75
2023/07/31 01:16:54;;;;;;;10.30;9.33;;;;;;;24.00;58.48;100528.50;5051428;28;20389;-75
2023/07/31 01:19:26;;;;;;;10.57;9.25;;;;;;;23.99;58.17;100525.00;5051409;28;20411;-75
2023/07/31 01:22:16;;;;;;;11.35;10.25;;;;;;;23.99;58.31;100521.47;5051619;28;20384;-75
2023/07/31 01:25:17;;;;;;;9.88;8.90;;;;;;;24.13;57.75;100538.88;5051025;28;20392;-75
2023/07/31 01:28:04;;;;;;;11.00;10.00;;;;;;;24.09;57.93;100528.81;5051280;28;20388;-75
2023/07/31 01:30:35;;;;;;;12.52;10.55;;;;;;;24.05;58.02;100525.81;5050476;28;20929;-75
2023/07/31 01:33:06;;;;;;;10.88;9.85;;;;;;;23.88;58.43;100519.78;5051091;28;20892;-75
2023/07/31 01:35:36;;;;;;;11.20;10.20;;;;;;;23.95;58.02;100520.34;5051187;28;21060;-75
2023/07/31 01:38:01;;;;;;;11.13;10.13;;;;;;;24.08;57.57;100524.50;5050938;28;20392;-75
2023/07/31 01:40:27;;;;;;;11.40;10.20;;;;;;;24.02;57.85;100523.63;5050696;28;20381;-75
2023/07/31 01:42:52;;;;;;;13.33;10.23;;;;;;;23.97;57.89;100520.94;5051225;28;20373;-76
2023/07/31 01:45:18;;;;;;;12.50;10.90;;;;;;;24.03;57.83;100519.84;5050857;28;20387;-76
2023/07/31 01:47:43;;;;;;;11.93;10.77;;;;;;;23.91;57.77;100514.66;5040273;28;20477;-76
2023/07/31 01:50:09;;;;;;;11.90;10.73;;;;;;;23.91;57.92;100511.94;5030905;28;20512;-75
2023/07/31 01:52:35;;;;;;;11.83;10.63;;;;;;;23.98;57.66;100520.63;5030882;28;20471;-75
2023/07/31 01:55:00;;;;;;;11.60;10.60;;;;;;;24.01;57.42;100520.13;5031854;28;20410;-76
2023/07/31 01:57:26;;;;;;;12.07;10.87;;;;;;;24.02;57.19;100524.47;5034142;28;20412;-75
2023/07/31 01:59:53;;;;;;;12.30;11.00;;;;;;;24.01;57.38;100541.78;5038113;28;20946;-75
2023/07/31 02:02:19;;;;;;;11.80;10.60;;;;;;;24.00;56.86;100540.16;5047946;28;20775;-75
2023/07/31 02:04:45;;;;;;;11.48;10.35;;;;;;;23.92;57.07;100540.66;5050847;28;20695;-73
2023/07/31 02:07:10;;;;;;;11.52;10.43;;;;;;;24.00;56.86;100542.88;5049943;28;20384;-73
2023/07/31 02:09:36;;;;;;;12.03;10.83;;;;;;;23.90;56.79;100548.22;5049756;28;20409;-74
2023/07/31 02:12:02;;;;;;;10.93;9.93;;;;;;;23.89;56.85;100552.00;5050213;28;20387;-75
2023/07/31 02:14:27;;;;;;;10.83;9.63;;;;;;;23.80;57.07;100548.16;5050233;28;20442;-77
2023/07/31 02:16:53;;;;;;;10.97;9.87;;;;;;;23.81;56.90;100555.22;5043753;28;20389;-75
2023/07/31 02:19:18;;;;;;;13.63;10.00;;;;;;;23.87;56.65;100553.34;5038509;28;20372;-75
2023/07/31 02:21:44;;;;;;;10.20;9.20;;;;;;;23.80;56.67;100559.00;5038732;28;20473;-73
2023/07/31 02:24:09;;;;;;;10.77;9.73;;;;;;;23.71;56.85;100574.88;5033427;28;20458;-75
2023/07/31 02:26:35;;;;;;;9.85;8.93;;;;;;;23.77;56.53;100568.44;5041045;28;20393;-74
2023/07/31 02:29:01;;;;;;;10.80;9.80;;;;;;;23.72;56.91;100571.09;5025788;28;20809;-74
2023/07/31 02:31:26;;;;;;;9.23;8.32;;;;;;;23.69;56.61;100579.75;5020440;28;20387;-74
2023/07/31 02:33:51;;;;;;;10.07;9.07;;;;;;;23.72;56.75;100579.22;5024007;28;20382;-74
2023/07/31 02:36:17;;;;;;;9.93;8.93;;;;;;;23.74;56.72;100587.91;5031459;28;20480;-74
2023/07/31 02:38:43;;;;;;;9.40;8.55;;;;;;;23.56;57.03;100585.63;5041138;28;20470;-74
2023/07/31 02:41:08;;;;;;;9.03;8.20;;;;;;;23.52;56.99;100579.91;5039046;28;20379;-74
2023/07/31 02:43:33;;;;;;;9.27;8.37;;;;;;;23.54;56.67;100585.88;5039883;28;20376;-75
2023/07/31 02:45:59;;;;;;;9.10;8.25;;;;;;;23.37;57.13;100580.63;5038177;28;20754;-74
2023/07/31 02:48:25;;;;;;;9.00;8.10;;;;;;;23.48;56.90;100587.72;5038217;28;20523;-75
2023/07/31 02:50:50;;;;;;;8.80;7.90;;;;;;;23.32;57.12;100583.28;5036780;28;20413;-75
2023/07/31 02:53:16;;;;;;;8.50;7.70;;;;;;;23.38;57.00;100586.84;5044012;28;20406;-75
2023/07/31 02:55:41;;;;;;;8.70;7.90;;;;;;;23.35;56.90;100590.84;5043265;28;20434;-75
2023/07/31 02:58:07;;;;;;;8.20;7.40;;;;;;;23.21;57.06;100587.78;5044866;28;20389;-75
2023/07/31 03:00:32;;;;;;;8.55;7.57;;;;;;;23.19;56.91;100591.81;5041555;28;20374;-75
2023/07/31 03:02:58;;;;;;;7.90;7.10;;;;;;;23.22;56.87;100599.41;5024474;28;20384;-75
2023/07/31 03:05:23;;;;;;;8.57;7.67;;;;;;;23.26;56.67;100592.41;5042860;28;20463;-75
2023/07/31 03:07:49;;;;;;;9.52;7.35;;;;;;;23.40;56.43;100598.19;5044670;28;20378;-74
2023/07/31 03:10:14;;;;;;;8.20;7.40;;;;;;;23.36;56.14;100592.50;5042170;28;20446;-76
2023/07/31 03:12:40;;;;;;;8.37;7.53;;;;;;;23.40;56.07;100600.91;5043381;28;20476;-75
2023/07/31 03:15:06;;;;;;;8.32;7.15;;;;;;;23.35;55.92;100601.66;5052962;28;20487;-75
2023/07/31 03:17:32;;;;;;;8.40;7.60;;;;;;;23.23;55.94;100599.16;5054255;28;20393;-75
2023/07/31 03:19:58;;;;;;;7.87;7.07;;;;;;;23.26;55.78;100595.09;5053990;28;20438;-75
2023/07/31 03:22:23;;;;;;;8.63;7.30;;;;;;;23.26;55.76;100589.69;5054233;28;20392;-75
2023/07/31 03:24:48;;;;;;;7.40;6.70;;;;;;;23.32;55.31;100599.50;5054131;28;20721;-75
2023/07/31 03:27:14;;;;;;;7.20;6.50;;;;;;;23.27;55.22;100602.97;5054625;28;20369;-75
2023/07/31 03:29:39;;;;;;;6.60;6.00;;;;;;;23.30;55.19;100604.34;5055461;28;20409;-75
2023/07/31 03:32:05;;;;;;;7.67;6.30;;;;;;;23.37;54.89;100604.97;5055056;28;20450;-75
2023/07/31 03:34:31;;;;;;;6.18;5.30;;;;;;;23.33;54.53;100597.59;5053754;28;20377;-75
2023/07/31 03:36:58;;;;;;;6.40;5.80;;;;;;;23.47;54.38;100596.91;5053899;28;20377;-75
2023/07/31 03:39:23;;;;;;;5.40;4.90;;;;;;;23.46;53.89;100603.41;5053384;28;20843;-76
2023/07/31 03:41:49;;;;;;;5.77;5.17;;;;;;;23.33;54.37;100603.81;5052617;28;20504;-75
2023/07/31 03:44:14;;;;;;;5.30;4.80;;;;;;;23.36;54.28;100605.22;5053016;28;20380;-75
2023/07/31 03:46:40;;;;;;;6.00;4.65;;;;;;;23.43;54.06;100613.94;5040247;28;20451;-75
2023/07/31 03:49:05;;;;;;;5.20;4.70;;;;;;;23.39;53.82;100610.09;5033302;28;20507;-75
2023/07/31 03:51:30;;;;;;;5.37;4.87;;;;;;;23.36;53.80;100611.44;5032418;28;20719;-75
2023/07/31 03:53:56;;;;;;;5.07;4.53;;;;;;;23.34;54.11;100605.47;5033466;28;20700;-75
2023/07/31 03:56:22;;;;;;;5.10;4.38;;;;;;;23.38;54.03;100614.69;5033361;28;20382;-75
2023/07/31 03:58:47;;;;;;;4.93;4.40;;;;;;;23.37;53.73;100623.06;5032868;28;20430;-76
2023/07/31 04:01:13;;;;;;;4.40;4.00;;;;;;;23.35;53.60;100620.59;5040223;28;20465;-76
2023/07/31 04:03:39;;;;;;;4.63;4.23;;;;;;;23.39;53.55;100626.31;5043810;28;20718;-76
2023/07/31 04:06:04;;;;;;;4.40;4.00;;;;;;;23.48;53.38;100619.38;5052204;28;20391;-74
2023/07/31 04:08:30;;;;;;;5.07;3.90;;;;;;;23.60;53.37;100619.19;5051869;28;20392;-76
2023/07/31 04:10:55;;;;;;;4.27;3.90;;;;;;;23.67;53.04;100630.59;5052509;28;20381;-75
2023/07/31 04:13:22;;;;;;;4.72;3.90;;;;;;;23.78;52.91;100632.31;5052101;28;20903;-75
2023/07/31 04:15:50;;;;;;;4.90;3.70;;;;;;;23.71;53.07;100637.13;5051367;28;20395;-76
2023/07/31 04:18:15;;;;;;;3.58;3.28;;;;;;;23.90;52.50;100625.94;5051503;28;20391;-76
2023/07/31 04:20:41;;;;;;;4.80;3.40;;;;;;;23.98;52.14;100630.84;5051293;28;20373;-76
2023/07/31 04:23:06;;;;;;;3.50;3.20;;;;;;;23.94;52.00;100629.75;5053445;28;20377;-76
2023/07/31 04:25:32;;;;;;;4.80;3.10;;;;;;;23.92;52.37;100623.78;5053043;28;20432;-76
2023/07/31 04:27:57;;;;;;;3.37;3.07;;;;;;;23.85;52.60;100622.09;5053333;28;20468;-76
2023/07/31 04:30:24;;;;;;;4.80;3.30;;;;;;;23.92;52.42;100621.06;5052066;28;20784;-76
2023/07/31 04:32:49;;;;;;;3.10;2.80;;;;;;;24.00;52.33;100625.97;5044026;28;20422;-76
2023/07/31 04:35:14;;;;;;;3.33;3.00;;;;;;;24.11;52.31;100633.09;5032700;28;20406;-76
2023/07/31 04:37:41;;;;;;;4.13;3.17;;;;;;;24.10;52.04;100627.94;5032646;28;20386;-76
2023/07/31 04:40:08;;;;;;;3.15;2.78;;;;;;;24.10;52.01;100633.34;5032449;28;20374;-76
2023/07/31 04:42:34;;;;;;;3.88;2.95;;;;;;;24.05;52.25;100636.84;5032568;28;20386;-75
2023/07/31 04:45:00;;;;;;;3.35;2.80;;;;;;;24.03;52.32;100639.81;5030927;28;20389;-75
2023/07/31 04:47:25;;;;;;;3.67;2.90;;;;;;;24.13;52.23;100643.66;5030714;28;20383;-75
2023/07/31 04:49:50;;;;;;;4.03;2.80;;;;;;;24.16;52.14;100640.41;5032274;28;20460;-77
2023/07/31 04:52:16;;;;;;;4.20;3.00;;;;;;;24.11;52.13;100638.53;5032552;28;21024;-75
2023/07/31 04:54:41;;;;;;;3.23;2.67;;;;;;;24.23;51.90;100633.69;5032691;28;20716;-75
2023/07/31 04:57:07;;;;;;;5.10;3.28;;;;;;;24.22;51.90;100636.69;5032440;28;20414;-75
2023/07/31 04:59:32;;;;;;;4.32;2.78;;;;;;;24.37;51.39;100636.75;5032046;28;20382;-75
2023/07/31 05:01:58;;;;;;;3.97;3.00;;;;;;;24.30;51.74;100635.34;5032341;28;20389;-74
2023/07/31 05:04:23;;;;;;;3.23;3.00;;;;;;;24.38;51.50;100635.66;5031492;28;20720;-75
2023/07/31 05:06:49;;;;;;;3.35;3.00;;;;;;;24.58;51.48;100645.00;5032271;28;20381;-73
2023/07/31 05:09:14;;;;;;;4.30;2.90;;;;;;;24.76;51.23;100651.84;5032037;28;20882;-75
2023/07/31 05:11:42;;;;;;;4.07;2.97;;;;;;;24.80;51.25;100653.75;5031147;28;20383;-75
2023/07/31 05:14:08;;;;;;;2.90;2.67;;;;;;;24.98;51.12;100660.56;5031988;28;20394;-75
2023/07/31 05:16:33;;;;;;;3.43;3.10;;;;;;;25.16;50.72;100659.25;5031928;28;20739;-75
2023/07/31 05:18:59;;;;;;;3.22;2.63;;;;;;;25.13;50.65;100657.06;5031804;28;20375;-73
2023/07/31 05:21:24;;;;;;;5.00;2.33;;;;;;;25.20;50.51;100656.81;5031831;28;20559;-73
2023/07/31 05:23:50;;;;;;;4.10;2.40;;;;;;;25.22;50.32;100659.25;5040767;28;20407;-74
2023/07/31 05:26:15;;;;;;;3.15;2.10;;;;;;;25.37;50.12;100662.84;5028760;28;20428;-74
2023/07/31 05:28:41;;;;;;;3.50;2.00;;;;;;;25.25;49.70;100650.63;5030004;28;20424;-74
2023/07/31 05:31:07;;;;;;;2.87;2.10;;;;;;;25.42;49.75;100656.59;5049499;28;20388;-72
2023/07/31 05:33:32;;;;;;;2.22;1.85;;;;;;;25.42;49.47;100651.16;5048341;28;20387;-74
2023/07/31 05:35:58;;;;;;;2.70;2.00;;;;;;;25.61;49.12;100662.28;5049671;28;21060;-73
2023/07/31 05:38:24;;;;;;;2.95;2.05;;;;;;;25.91;48.66;100650.59;5050233;28;20442;-74
2023/07/31 05:40:49;;;;;;;2.30;1.80;;;;;;;26.03;47.67;100650.31;5053232;28;20361;-73
2023/07/31 05:43:15;;;;;;;3.00;2.00;;;;;;;26.29;47.57;100655.69;5051661;28;20821;-73
2023/07/31 05:45:42;;;;;;;4.28;2.22;;;;;;;26.24;47.36;100661.16;5051939;28;20419;-75
2023/07/31 05:48:08;;;;;;;4.70;2.38;;;;;;;26.15;47.65;100654.66;5035508;28;20448;-74
2023/07/31 05:50:33;;;;;;;2.87;2.60;;;;;;;26.23;47.61;100662.22;5031023;28;20740;-75
2023/07/31 05:52:59;;;;;;;2.57;2.27;;;;;;;26.32;47.52;100658.66;5031502;28;20390;-75
2023/07/31 05:55:26;;;;;;;2.92;2.45;;;;;;;26.42;47.28;100660.53;5031025;28;20458;-74
2023/07/31 05:57:52;;;;;;;2.60;2.20;;;;;;;26.64;46.49;100656.66;5048282;28;20446;-74
2023/07/31 06:00:18;;;;;;;2.83;2.30;;;;;;;26.51;46.62;100666.22;5050363;28;20399;-74
2023/07/31 06:02:43;;;;;;;2.90;2.40;;;;;;;26.57;46.48;100647.97;5034705;28;20382;-74
2023/07/31 06:05:10;;;;;;;4.15;2.15;;;;;;;26.40;46.34;100660.00;5031062;28;20747;-74
2023/07/31 06:07:35;;;;;;;2.80;2.30;;;;;;;26.58;46.66;100669.44;5046616;28;20418;-75
2023/07/31 06:10:03;;;;;;;4.15;2.70;;;;;;;26.71;46.33;100659.91;5047312;28;20970;-75
2023/07/31 06:12:28;;;;;;;4.80;2.13;;;;;;;26.58;46.41;100657.75;5030936;28;20746;-74
2023/07/31 06:14:54;;;;;;;3.23;2.10;;;;;;;26.69;46.40;100659.38;5032731;28;20873;-74
2023/07/31 06:17:21;;;;;;;3.75;1.90;;;;;;;26.97;45.59;100663.28;5040344;28;20401;-74
2023/07/31 06:19:46;;;;;;;2.42;1.90;;;;;;;27.08;45.51;100664.03;5038773;28;20432;-74
2023/07/31 06:22:12;;;;;;;2.00;1.60;;;;;;;26.96;45.80;100663.59;5031300;28;20835;-74
2023/07/31 06:24:37;;;;;;;1.63;1.53;;;;;;;26.88;45.84;100668.53;5040204;28;20373;-74
2023/07/31 06:27:03;;;;;;;2.70;1.63;;;;;;;26.86;45.75;100656.28;5039027;28;20373;-74
2023/07/31 06:29:29;;;;;;;2.13;1.60;;;;;;;26.66;46.22;100668.88;5040834;28;20557;-73
2023/07/31 06:31:55;;;;;;;1.80;1.58;;;;;;;26.80;46.36;100669.09;5038605;28;20512;-73
2023/07/31 06:34:20;;;;;;;2.15;1.73;;;;;;;27.05;46.05;100659.97;5040015;28;20436;-74
2023/07/31 06:36:46;;;;;;;2.13;1.70;;;;;;;27.08;45.25;100664.03;5049867;28;20380;-72
2023/07/31 06:39:11;;;;;;;2.30;1.40;;;;;;;26.92;45.89;100655.19;5050032;28;20491;-75
2023/07/31 06:41:38;;;;;;;1.73;1.40;;;;;;;27.12;45.98;100664.28;5050057;28;20900;-75
2023/07/31 06:44:03;;;;;;;1.90;1.63;;;;;;;27.26;45.85;100666.13;5049342;28;20376;-74
2023/07/31 06:46:29;;;;;;;3.30;2.10;;;;;;;27.37;45.59;100663.31;5037835;28;20383;-74
2023/07/31 06:48:55;;;;;;;3.47;1.83;;;;;;;27.36;45.22;100659.78;5030812;28;20378;-75
2023/07/31 06:51:20;;;;;;;2.60;1.80;;;;;;;27.52;44.95;100659.69;5031081;28;20457;-76
2023/07/31 06:53:46;;;;;;;2.42;1.73;;;;;;;27.36;45.30;100653.53;5031146;28;20468;-74
2023/07/31 06:56:12;;;;;;;2.30;1.50;;;;;;;27.48;44.81;100666.78;5031103;28;20463;-75
2023/07/31 06:58:38;;;;;;;1.90;1.70;;;;;;;27.44;44.67;100653.75;5030773;28;20417;-75
2023/07/31 07:01:03;;;;;;;1.73;1.60;;;;;;;27.41;44.81;100665.19;5031108;28;20711;-73
2023/07/31 07:03:29;;;;;;;2.70;1.50;;;;;;;27.45;44.53;100658.09;5030988;28;20468;-74
2023/07/31 07:05:55;;;;;;;2.40;1.50;;;;;;;27.53;44.57;100664.84;5036073;28;20469;-75
2023/07/31 07:08:20;;;;;;;2.95;1.60;;;;;;;27.49;44.40;100662.97;5030974;28;20851;-75
2023/07/31 07:10:46;;;;;;;2.10;1.40;;;;;;;27.60;44.19;100664.50;5030856;28;20406;-73
2023/07/31 07:13:13;;;;;;;1.98;1.58;;;;;;;27.62;43.59;100668.56;5031760;28;20381;-76
2023/07/31 07:15:38;;;;;;;2.33;1.65;;;;;;;27.42;44.04;100666.00;5049088;28;20400;-76
2023/07/31 07:18:04;;;;;;;2.30;1.73;;;;;;;27.45;43.81;100665.44;5052196;28;20706;-76
2023/07/31 07:20:29;;;;;;;2.10;1.83;;;;;;;27.71;43.87;100676.13;5042256;28;20406;-76
2023/07/31 07:22:55;;;;;;;2.75;1.92;;;;;;;27.62;43.59;100668.56;5030800;28;20383;-76
2023/07/31 07:25:20;;;;;;;3.73;2.70;;;;;;;27.71;43.32;100671.47;5030482;28;20451;-75
2023/07/31 07:27:46;;;;;;;4.07;2.40;;;;;;;27.54;42.90;100669.19;5029771;28;20386;-76
2023/07/31 07:30:11;;;;;;;3.50;2.40;;;;;;;27.67;42.29;100670.44;5031475;28;20491;-76
2023/07/31 07:32:37;;;;;;;3.08;2.70;;;;;;;27.63;42.56;100678.34;5031372;28;20409;-77
2023/07/31 07:35:03;;;;;;;3.70;2.87;;;;;;;27.53;42.43;100674.91;5029698;28;20414;-75
2023/07/31 07:37:28;;;;;;;3.63;2.90;;;;;;;27.60;41.82;100670.78;5033116;28;20778;-75
2023/07/31 07:39:54;;;;;;;4.88;3.10;;;;;;;27.70;42.33;100672.59;5036487;28;20381;-76
2023/07/31 07:42:20;;;;;;;5.10;3.50;;;;;;;27.88;42.22;100672.97;5034389;28;20375;-75
2023/07/31 07:44:45;;;;;;;5.23;3.40;;;;;;;28.17;42.15;100675.72;5034323;28;20374;-75
2023/07/31 07:47:10;;;;;;;5.30;3.90;;;;;;;27.82;42.37;100666.75;5033214;28;20466;-76
2023/07/31 07:49:36;;;;;;;3.80;3.00;;;;;;;27.73;41.45;100669.31;5033971;28;20406;-76
2023/07/31 07:52:02;;;;;;;4.57;3.60;;;;;;;27.72;41.89;100675.03;5035575;28;20868;-79
2023/07/31 07:54:28;;;;;;;5.18;3.90;;;;;;;28.07;41.01;100671.16;5033099;28;20391;-75
2023/07/31 07:56:53;;;;;;;5.50;4.50;;;;;;;28.06;41.41;100671.47;5033152;28;20397;-74
2023/07/31 07:59:19;;;;;;;5.87;5.03;;;;;;;28.01;41.55;100675.84;5033507;28;20378;-76
2023/07/31 08:01:44;;;;;;;7.07;5.87;;;;;;;28.14;41.26;100674.34;5034081;28;20448;-76
2023/07/31 08:04:10;;;;;;;7.97;5.97;;;;;;;28.37;40.90;100669.22;5034220;28;20851;-76
2023/07/31 08:06:35;;;;;;;8.35;6.10;;;;;;;28.36;41.01;100679.31;5034124;28;20715;-76
2023/07/31 08:09:05;;;;;;;9.13;6.28;;;;;;;28.29;40.83;100683.47;5033374;28;20414;-76
2023/07/31 08:11:31;;;;;;;7.53;6.72;;;;;;;28.28;41.05;100679.13;5033098;28;20378;-75
2023/07/31 08:13:57;;;;;;;8.50;6.53;;;;;;;28.21;40.51;100682.19;5033270;28;20371;-74
2023/07/31 08:16:22;;;;;;;9.90;6.70;;;;;;;28.54;40.28;100672.31;5034039;28;20379;-75
2023/07/31 08:18:48;;;;;;;7.90;5.53;;;;;;;28.45;39.95;100678.66;5032900;28;20390;-76
2023/07/31 08:21:14;;;;;;;7.85;6.55;;;;;;;28.30;40.38;100675.00;5033766;28;20366;-75
2023/07/31 08:23:40;;;;;;;8.13;6.90;;;;;;;28.42;40.34;100671.88;5033843;28;20395;-77
2023/07/31 08:26:06;;;;;;;9.33;6.70;;;;;;;28.44;40.59;100666.13;5033199;28;20472;-76
2023/07/31 08:28:31;;;;;;;11.80;7.07;;;;;;;28.48;40.08;100675.34;5032906;28;20887;-75
2023/07/31 08:30:57;;;;;;;7.75;6.72;;;;;;;28.56;40.15;100677.47;5033487;28;20878;-75
2023/07/31 08:33:22;;;;;;;6.37;5.77;;;;;;;28.38;40.06;100670.84;5034469;28;20390;-74
2023/07/31 08:35:48;;;;;;;6.30;5.70;;;;;;;28.55;39.79;100684.81;5033874;28;20389;-76
2023/07/31 08:38:14;;;;;;;5.80;5.20;;;;;;;28.37;39.61;100680.91;5033838;28;20927;-75
2023/07/31 08:40:39;;;;;;;6.25;5.65;;;;;;;28.55;39.39;100673.91;5033572;28;20387;-76
2023/07/31 08:43:05;;;;;;;5.70;4.97;;;;;;;28.32;39.51;100670.06;5032490;28;20385;-76
2023/07/31 08:45:32;;;;;;;5.43;4.93;;;;;;;28.12;39.27;100679.28;5032979;28;20440;-76
2023/07/31 08:47:58;;;;;;;4.85;4.35;;;;;;;28.09;39.22;100673.59;5032645;28;20370;-75
2023/07/31 08:50:24;;;;;;;6.15;5.50;;;;;;;28.27;38.95;100661.13;5032249;28;20478;-76
2023/07/31 08:52:51;;;;;;;5.23;4.73;;;;;;;28.41;38.34;100668.34;5018144;28;20394;-75
2023/07/31 08:55:17;;;;;;;5.47;4.72;;;;;;;28.16;39.18;100668.63;5021084;28;20890;-77
2023/07/31 08:57:43;;;;;;;6.10;5.50;;;;;;;28.36;38.75;100667.56;5018753;28;20712;-75
2023/07/31 09:00:10;;;;;;;6.90;4.63;;;;;;;27.99;39.00;100669.06;5028469;28;20693;-75
2023/07/31 09:02:46;;;;;;;6.30;5.70;;;;;;;28.49;39.23;100672.34;5029137;28;20386;-75
2023/07/31 09:05:12;;;;;;;6.00;4.97;;;;;;;28.87;38.49;100669.69;5029768;28;20433;-76
2023/07/31 09:07:39;;;;;;;5.13;4.53;;;;;;;29.04;37.61;100666.44;5032750;28;20375;-75
2023/07/31 09:10:05;;;;;;;3.85;3.40;;;;;;;28.86;37.75;100683.63;5031210;28;20415;-75
2023/07/31 09:12:31;;;;;;;5.68;3.88;;;;;;;28.75;38.33;100680.22;5032058;28;20473;-74
2023/07/31 09:14:57;;;;;;;5.13;4.10;;;;;;;29.00;38.73;100670.06;5032458;28;20425;-75
2023/07/31 09:17:34;;;;;;;3.67;3.38;;;;;;;29.13;38.86;100675.56;5033004;28;20428;-75
2023/07/31 09:20:16;;;;;;;3.40;3.00;;;;;;;28.79;38.65;100682.06;5032153;28;20367;-75
2023/07/31 09:22:43;;;;;;;2.90;2.70;;;;;;;28.68;38.71;100668.84;5032405;28;20402;-76
2023/07/31 09:25:22;;;;;;;5.38;3.40;;;;;;;29.00;38.26;100659.16;5033259;28;20484;-74
2023/07/31 09:27:55;;;;;;;4.32;3.72;;;;;;;28.90;38.03;100663.66;5033260;28;20746;-75
2023/07/31 09:30:21;;;;;;;4.70;3.53;;;;;;;28.85;38.66;100654.72;5032083;28;20414;-76
2023/07/31 09:32:48;;;;;;;3.92;3.45;;;;;;;29.02;38.03;100654.19;5032972;28;20370;-76
2023/07/31 09:35:22;;;;;;;3.60;3.30;;;;;;;29.10;37.49;100651.63;5032718;28;20381;-76
2023/07/31 09:37:57;;;;;;;4.50;3.33;;;;;;;29.26;37.07;100651.41;5033451;28;20461;-78
2023/07/31 09:40:34;;;;;;;3.72;2.40;;;;;;;29.19;36.72;100660.00;5032955;28;20375;-76
2023/07/31 09:43:20;;;;;;;2.37;2.17;;;;;;;29.00;37.14;100653.69;5031596;28;20734;-75
2023/07/31 09:45:46;;;;;;;3.63;2.27;;;;;;;28.88;37.84;100663.13;5031109;28;20386;-75
2023/07/31 09:48:16;;;;;;;3.60;2.28;;;;;;;29.04;37.74;100663.69;5033141;28;20441;-76
2023/07/31 09:50:44;;;;;;;4.25;2.80;;;;;;;29.28;37.35;100650.00;5031845;28;20818;-76
2023/07/31 09:53:10;;;;;;;3.15;2.45;;;;;;;29.29;37.65;100654.34;5031711;28;20432;-79
2023/07/31 09:55:36;;;;;;;4.10;2.30;;;;;;;29.10;37.65;100648.06;5032575;28;20708;-76
2023/07/31 09:58:07;;;;;;;2.60;2.40;;;;;;;29.21;37.55;100641.38;5033381;28;20409;-75
2023/07/31 10:00:33;;;;;;;3.08;2.75;;;;;;;29.45;38.05;100652.19;5037932;28;20416;-76
2023/07/31 10:03:01;;;;;;;2.63;2.42;;;;;;;29.68;36.36;100652.34;5032659;28;20465;-75
2023/07/31 10:05:49;;;;;;;2.50;2.30;;;;;;;29.51;36.66;100644.72;5034504;28;20440;-75
2023/07/31 10:08:17;;;;;;;2.63;2.42;;;;;;;29.53;36.70;100640.59;5040344;28;20394;-75
2023/07/31 10:10:44;;;;;;;4.57;2.20;;;;;;;29.17;38.05;100643.91;5030938;28;20422;-75
2023/07/31 10:13:11;;;;;;;2.72;2.15;;;;;;;28.99;37.47;100641.94;5030260;28;20390;-74
2023/07/31 10:15:37;;;;;;;2.37;2.17;;;;;;;29.16;37.45;100636.81;5030517;28;20397;-76
2023/07/31 10:18:06;;;;;;;2.67;1.50;;;;;;;29.47;36.81;100638.22;5029881;28;20469;-75
2023/07/31 10:20:32;;;;;;;2.20;1.50;;;;;;;29.46;36.65;100648.34;5029030;28;20409;-76
2023/07/31 10:22:58;;;;;;;2.10;1.80;;;;;;;29.58;36.52;100636.94;5030361;28;20425;-75
2023/07/31 10:25:26;;;;;;;2.08;1.60;;;;;;;29.54;36.81;100650.38;5028850;28;20482;-75
2023/07/31 10:27:53;;;;;;;3.70;2.10;;;;;;;29.73;36.15;100641.34;5030568;28;20387;-76
2023/07/31 10:30:22;;;;;;;2.07;1.60;;;;;;;29.44;37.08;100644.28;5030937;28;20898;-76
2023/07/31 10:32:50;;;;;;;2.30;1.13;;;;;;;29.25;37.10;100647.88;5030508;28;20448;-76
2023/07/31 10:35:17;;;;;;;2.10;1.52;;;;;;;29.19;37.02;100648.22;5032066;28;20473;-75
2023/07/31 10:37:43;;;;;;;1.50;1.38;;;;;;;29.20;37.11;100649.88;5031032;28;20746;-75
2023/07/31 10:40:25;;;;;;;1.50;1.30;;;;;;;29.13;36.25;100640.09;5028526;28;20384;-75
2023/07/31 10:42:52;;;;;;;1.90;1.52;;;;;;;29.15;37.02;100643.38;5030809;28;20456;-75
2023/07/31 10:45:26;;;;;;;1.50;1.40;;;;;;;29.19;37.18;100649.06;5029767;28;20401;-76
2023/07/31 10:48:01;;;;;;;2.50;1.38;;;;;;;29.38;37.32;100624.44;5029923;28;20466;-73
2023/07/31 10:50:28;;;;;;;2.00;1.80;;;;;;;29.69;36.90;100629.38;5024256;28;20416;-73
2023/07/31 10:52:56;;;;;;;2.00;1.60;;;;;;;29.53;36.90;100632.41;5021683;28;20382;-74
2023/07/31 10:55:33;;;;;;;2.17;1.80;;;;;;;29.25;37.78;100623.28;5024773;28;20386;-74
2023/07/31 10:58:11;;;;;;;1.77;1.52;;;;;;;29.23;38.30;100630.19;5027394;28;20924;-75
2023/07/31 11:00:39;;;;;;;1.92;1.38;;;;;;;29.19;37.81;100624.50;5032389;28;20382;-74
2023/07/31 11:03:06;;;;;;;1.58;1.48;;;;;;;29.19;38.10;100627.22;5033048;28;20382;-78
2023/07/31 11:05:53;;;;;;;1.80;1.50;;;;;;;29.45;38.15;100619.41;5031239;28;20723;-76
2023/07/31 11:08:24;;;;;;;6.38;1.60;;;;;;;29.76;37.22;100618.91;5027897;28;20379;-74
2023/07/31 11:11:01;;;;;;;1.40;1.30;;;;;;;29.70;36.82;100611.88;5027710;28;20796;-75
2023/07/31 11:13:28;;;;;;;1.55;1.10;;;;;;;29.35;37.67;100619.56;5032444;28;20390;-75
2023/07/31 11:15:53;;;;;;;2.92;1.27;;;;;;;29.58;37.71;100612.34;5034054;28;20476;-75
2023/07/31 11:18:19;;;;;;;1.43;1.33;;;;;;;29.87;37.29;100606.69;5033258;28;20409;-75
2023/07/31 11:20:44;;;;;;;1.40;1.13;;;;;;;29.85;36.36;100595.22;5033015;28;20384;-74
2023/07/31 11:23:11;;;;;;;2.10;1.10;;;;;;;29.78;35.67;100607.66;5036763;28;20734;-75